Flight Track Log - Related Links

Times and Time Zones

All times are in EDT time to prevent confusion due to time zone crossing. See the OPT429 flight status page for this flight to view local times or setup timezone preferences in your user account.

Time Position Orientation Groundspeed Altitude Reporting Facility
EDT Latitude Longitude Course Direction KTS MPH feet Rate Location/Type
Sun 03:57:28 PM 30.5075 -86.4367 342° North 205 236 5,500  Level Jacksonville Center
Sun 03:58:28 PM 30.5633 -86.4483 350° North 212 244 8,400 2,600 Climbing Jacksonville Center
Sun 03:59:28 PM 30.6236 -86.4653 346° North 212 244 10,700 2,450 Climbing Jacksonville Center
Sun 04:00:28 PM 30.6919 -86.4822 348° North 228 262 13,300 2,050 Climbing Jacksonville Center
Sun 04:01:00 PM 30.4091 -86.4750 342° North  Level FlightAware Approximate
Sun 04:01:28 PM 30.7614 -86.4606 15° North 243 280 14,800  Level Jacksonville Center
Sun 04:02:28 PM 30.8400 -86.4153 26° Northeast 279 321 16,200 1,500 Climbing Jacksonville Center
Sun 04:03:28 PM 30.9289 -86.3678 25° Northeast 302 348 17,800 1,550 Climbing Jacksonville Center
Sun 04:04:28 PM 31.0158 -86.3225 24° Northeast 327 376 19,300 1,500 Climbing Jacksonville Center
Sun 04:05:28 PM 31.1089 -86.2772 23° Northeast 344 396 20,800 1,500 Climbing Jacksonville Center
Sun 04:06:28 PM 31.2000 -86.2272 25° Northeast 349 402 22,300 1,450 Climbing Jacksonville Center
Sun 04:07:28 PM 31.2931 -86.1769 25° Northeast 349 402 23,700 1,354 Climbing Jacksonville Center
Sun 04:09:12 PM 31.4436 -86.0908 26° Northeast 369 425 26,000 1,317 Climbing Atlanta Center
Sun 04:10:12 PM 31.5383 -86.0417 24° Northeast 369 425 27,300 1,200 Climbing Atlanta Center
Sun 04:11:12 PM 31.6331 -85.9878 26° Northeast 369 425 28,400 1,300 Climbing Atlanta Center
Sun 04:12:12 PM 31.7319 -85.9361 24° Northeast 369 425 29,900 1,450 Climbing Atlanta Center
Sun 04:13:12 PM 31.8267 -85.8867 24° Northeast 369 425 31,300 1,300 Climbing Atlanta Center
Sun 04:14:12 PM 31.9214 -85.8350 25° Northeast 369 425 32,500 1,250 Climbing Atlanta Center
Sun 04:15:12 PM 32.0183 -85.7806 25° Northeast 374 430 33,800 1,150 Climbing Atlanta Center
Sun 04:16:12 PM 32.1172 -85.7211 27° Northeast 379 436 34,800 600 Climbing Atlanta Center
Sun 04:17:12 PM 32.2181 -85.6667 25° Northeast 385 443 35,000 100 Climbing Atlanta Center
Sun 04:18:12 PM 32.3147 -85.6142 25° Northeast 405 466 35,000  Level Atlanta Center
Sun 04:19:12 PM 32.4367 -85.5450 26° Northeast 410 472 35,000  Level Atlanta Center
Sun 04:20:12 PM 32.5417 -85.4903 24° Northeast 404 465 35,000  Level Atlanta Center
Sun 04:21:12 PM 32.6467 -85.4303 26° Northeast 404 465 35,000  Level Atlanta Center
Sun 04:22:12 PM 32.7539 -85.3725 24° Northeast 404 465 35,000  Level Atlanta Center
Sun 04:23:12 PM 32.8589 -85.3122 26° Northeast 404 465 35,000  Level Atlanta Center
Sun 04:24:12 PM 32.9639 -85.2544 25° Northeast 404 465 35,000  Level Atlanta Center
Sun 04:25:12 PM 33.0625 -85.1939 27° Northeast 399 459 35,000  Level Atlanta Center
Sun 04:26:12 PM 33.1428 -85.0883 48° Northeast 404 465 35,000  Level Atlanta Center
Sun 04:27:12 PM 33.2208 -84.9850 48° Northeast 404 465 35,000  Level Atlanta Center
Sun 04:28:12 PM 33.2989 -84.8789 49° Northeast 421 484 35,000 -550 Level Atlanta Center
Sun 04:29:12 PM 33.3703 -84.7800 49° Northeast 427 491 33,900 -1,150 Descending Atlanta Center
Sun 04:30:12 PM 33.4483 -84.6761 48° Northeast 427 491 32,700 -1,200 Descending Atlanta Center
Sun 04:31:12 PM 33.5281 -84.5697 48° Northeast 427 491 31,500 -1,250 Descending Atlanta Center
Sun 04:32:12 PM 33.6142 -84.4503 49° Northeast 427 491 30,200 -1,300 Descending Atlanta Center
Sun 04:33:12 PM 33.7061 -84.3508 42° Northeast 427 491 28,900 -1,300 Descending Atlanta Center
Sun 04:34:12 PM 33.8150 -84.2714 31° Northeast 441 507 27,600 -950 Descending Atlanta Center
Sun 04:35:12 PM 33.9236 -84.2042 27° Northeast 441 507 27,000 -300 Descending Atlanta Center
Sun 04:36:12 PM 34.0300 -84.1392 27° Northeast 449 517 27,000  Level Atlanta Center
Sun 04:37:12 PM 34.1386 -84.0664 29° Northeast 449 517 27,000  Level Atlanta Center
Sun 04:38:12 PM 34.2306 -83.9658 42° Northeast 449 517 27,000  Level Atlanta Center
Sun 04:39:12 PM 34.3200 -83.8553 46° Northeast 444 511 27,000  Level Atlanta Center
Sun 04:40:12 PM 34.4117 -83.7492 44° Northeast 444 511 27,000 -450 Level Atlanta Center
Sun 04:41:12 PM 34.5033 -83.6456 43° Northeast 444 511 26,100 -1,050 Descending Atlanta Center
Sun 04:42:12 PM 34.5989 -83.5342 44° Northeast 454 522 24,900 -1,700 Descending Atlanta Center
Sun 04:43:12 PM 34.6964 -83.4222 43° Northeast 449 517 22,700 -2,150 Descending Atlanta Center
Sun 04:44:12 PM 34.7856 -83.3156 44° Northeast 444 511 20,600 -1,950 Descending Atlanta Center
Sun 04:45:12 PM 34.8622 -83.2211 45° Northeast 439 505 18,800 -2,000 Descending Atlanta Center
Sun 04:46:12 PM 34.9533 -83.1189 43° Northeast 419 482 16,600 -2,150 Descending Atlanta Center
Sun 04:47:12 PM 35.0319 -83.0267 44° Northeast 403 464 14,500 -2,050 Descending Atlanta Center
Sun 04:48:12 PM 35.1061 -82.9344 45° Northeast 389 448 12,500 -2,000 Descending Atlanta Center
Sun 04:49:12 PM 35.1825 -82.8469 43° Northeast 377 434 10,500 -1,750 Descending Atlanta Center
Sun 04:50:12 PM 35.2422 -82.7750 45° Northeast 339 390 9,000 -1,200 Descending Atlanta Center
Sun 04:51:12 PM 35.3022 -82.7053 43° Northeast 309 356 8,100 -450 Descending Atlanta Center
Sun 04:52:12 PM 35.3728 -82.6711 22° Northeast 269 310 8,100  Level Atlanta Center
Sun 04:53:12 PM 35.4458 -82.6747 358° North 261 300 8,100  Level Atlanta Center
Sun 04:54:12 PM 35.5167 -82.6711 North 248 285 8,100 -450 Level Atlanta Center
Sun 04:55:12 PM 35.5731 -82.6931 342° North 230 265 7,200 -900 Descending Atlanta Center
Sun 04:57:00 PM 35.4333 -82.5333 137° Southeast  Level FlightAware Approximate
Sun 05:04:00 PM 35.4362 -82.5418 137° Southeast  Level Estimated
Sun 05:05:00 PM 35.4362 -82.5418 319° Northwest  Level Estimated

Login

Don't have an account? Register now (free) for customized features, flight alerts, and more!